createdAt,value
2022-12-15T00:01:40.319Z,27.10
2022-12-15T00:04:26.110Z,31.77
2022-12-15T00:07:13.499Z,25.10
2022-12-15T00:09:59.096Z,25.50
2022-12-15T00:12:44.849Z,30.70
2022-12-15T00:15:30.625Z,26.73
2022-12-15T00:18:16.358Z,29.10
2022-12-15T00:21:01.916Z,34.53
2022-12-15T00:23:49.086Z,25.73
2022-12-15T00:26:34.675Z,28.30
2022-12-15T00:29:20.503Z,31.83
2022-12-15T00:32:06.140Z,31.70
2022-12-15T00:34:51.868Z,25.40
2022-12-15T00:37:37.654Z,27.10
2022-12-15T00:40:08.713Z,29.13
2022-12-15T00:42:39.077Z,30.40
2022-12-15T00:45:08.544Z,29.30
2022-12-15T00:47:36.675Z,31.93
2022-12-15T00:50:22.765Z,33.97
2022-12-15T00:53:08.442Z,27.33
2022-12-15T00:55:55.199Z,31.83
2022-12-15T00:58:40.807Z,30.70
2022-12-15T01:01:27.388Z,29.50
2022-12-15T01:04:13.722Z,28.97
2022-12-15T01:06:59.459Z,26.63
2022-12-15T01:09:45.148Z,29.10
2022-12-15T01:12:31.989Z,33.87
2022-12-15T01:15:17.544Z,30.10
2022-12-15T01:18:02.805Z,33.13
2022-12-15T01:20:34.652Z,31.60
2022-12-15T01:23:02.990Z,30.67
2022-12-15T01:25:31.068Z,35.53
2022-12-15T01:28:00.796Z,34.27
2022-12-15T01:30:29.357Z,37.00
2022-12-15T01:32:57.383Z,32.90
2022-12-15T01:35:26.837Z,31.53
2022-12-15T01:37:54.870Z,33.33
2022-12-15T01:40:40.730Z,31.77
2022-12-15T01:43:14.912Z,31.30
2022-12-15T01:45:56.486Z,29.67
2022-12-15T01:48:29.620Z,34.67
2022-12-15T01:51:07.075Z,30.60
2022-12-15T01:53:38.827Z,39.03
2022-12-15T01:56:09.401Z,34.03
2022-12-15T01:58:42.163Z,33.00
2022-12-15T02:01:10.870Z,31.30
2022-12-15T02:03:40.062Z,34.07
2022-12-15T02:06:09.321Z,31.00
2022-12-15T02:08:38.762Z,42.70
2022-12-15T02:11:22.728Z,30.00
2022-12-15T02:14:00.950Z,33.33
2022-12-15T02:16:39.019Z,32.73
2022-12-15T02:19:27.109Z,36.60
2022-12-15T02:22:18.839Z,33.00
2022-12-15T02:25:19.614Z,35.50
2022-12-15T02:27:57.411Z,33.03
2022-12-15T02:31:08.307Z,37.53
2022-12-15T02:33:39.152Z,36.43
2022-12-15T02:36:13.890Z,35.87
2022-12-15T02:38:42.626Z,31.43
2022-12-15T02:41:36.912Z,41.37
2022-12-15T02:44:11.027Z,33.23
2022-12-15T02:46:53.362Z,36.60
2022-12-15T02:49:31.247Z,37.57
2022-12-15T02:52:11.297Z,42.63
2022-12-15T02:54:58.389Z,35.43
2022-12-15T02:57:35.519Z,42.43
2022-12-15T03:00:08.249Z,35.90
2022-12-15T03:02:41.413Z,32.30
2022-12-15T03:05:10.556Z,36.13
2022-12-15T03:07:38.938Z,37.00
2022-12-15T03:10:08.525Z,41.13
2022-12-15T03:12:37.005Z,36.93
2022-12-15T03:15:05.614Z,38.37
2022-12-15T03:17:34.078Z,37.70
2022-12-15T03:20:03.723Z,37.57
2022-12-15T03:22:32.734Z,38.83
2022-12-15T03:25:00.925Z,38.90
2022-12-15T03:27:29.812Z,37.30
2022-12-15T03:29:58.002Z,38.40
2022-12-15T03:32:26.113Z,29.20
2022-12-15T03:34:55.184Z,32.00
2022-12-15T03:37:25.381Z,34.63
2022-12-15T03:39:53.393Z,39.23
2022-12-15T03:42:42.496Z,34.07
2022-12-15T03:45:11.025Z,37.07
2022-12-15T03:47:42.624Z,40.00
2022-12-15T03:50:12.245Z,33.83
2022-12-15T03:52:41.703Z,46.10
2022-12-15T03:55:11.332Z,33.50
2022-12-15T03:57:39.340Z,36.53
2022-12-15T04:00:08.911Z,42.90
2022-12-15T04:02:37.201Z,39.00
2022-12-15T04:05:05.956Z,35.93
2022-12-15T04:07:34.006Z,37.70
2022-12-15T04:10:03.414Z,28.40
2022-12-15T04:12:31.439Z,38.50
2022-12-15T04:14:59.702Z,40.90
2022-12-15T04:17:28.111Z,42.43
2022-12-15T04:20:11.551Z,41.60
2022-12-15T04:22:43.135Z,42.77
2022-12-15T04:25:32.604Z,38.17
2022-12-15T04:28:18.837Z,39.67
2022-12-15T04:31:07.270Z,40.03
2022-12-15T04:33:53.335Z,34.53
2022-12-15T04:36:39.314Z,35.50
2022-12-15T04:39:25.261Z,34.70
2022-12-15T04:42:14.134Z,36.53
2022-12-15T04:44:59.621Z,39.60
2022-12-15T04:47:45.203Z,39.37
2022-12-15T04:50:31.188Z,36.77
2022-12-15T04:53:27.018Z,41.97
2022-12-15T04:56:18.269Z,36.60
2022-12-15T04:59:06.279Z,45.57
2022-12-15T05:01:52.251Z,38.80
2022-12-15T05:04:38.245Z,41.97
2022-12-15T05:07:24.163Z,39.87
2022-12-15T05:10:14.696Z,40.63
2022-12-15T05:13:00.818Z,35.50
2022-12-15T05:15:48.474Z,37.73
2022-12-15T05:18:33.988Z,43.13
2022-12-15T05:21:19.740Z,38.47
2022-12-15T05:24:05.371Z,38.70
2022-12-15T05:26:53.191Z,41.00
2022-12-15T05:29:39.387Z,36.83
2022-12-15T05:32:10.139Z,37.23
2022-12-15T05:34:38.906Z,34.13
2022-12-15T05:37:07.456Z,36.70
2022-12-15T05:39:35.819Z,33.10
2022-12-15T05:42:04.591Z,36.23
2022-12-15T05:44:32.880Z,36.23
2022-12-15T05:47:01.007Z,35.33
2022-12-15T05:49:30.856Z,36.17
2022-12-15T05:52:01.766Z,32.80
2022-12-15T05:54:30.037Z,40.33
2022-12-15T05:56:58.184Z,34.27
2022-12-15T05:59:26.679Z,30.67
2022-12-15T06:01:55.205Z,32.67
2022-12-15T06:04:23.647Z,38.13
2022-12-15T06:06:53.337Z,34.50
2022-12-15T06:09:21.568Z,38.30
2022-12-15T06:11:49.622Z,35.43
2022-12-15T06:14:18.330Z,37.60
2022-12-15T06:16:51.017Z,33.97
2022-12-15T06:19:21.112Z,36.67
2022-12-15T06:21:49.378Z,34.20
2022-12-15T06:24:19.498Z,36.93
2022-12-15T06:26:49.822Z,39.17
2022-12-15T06:29:18.947Z,40.50
2022-12-15T06:31:47.685Z,35.27
2022-12-15T06:34:17.898Z,37.07
2022-12-15T06:36:46.486Z,39.10
2022-12-15T06:39:16.409Z,34.50
2022-12-15T06:41:46.697Z,43.90
2022-12-15T06:44:16.261Z,37.00
2022-12-15T06:46:46.282Z,36.50
2022-12-15T06:49:14.966Z,45.90
2022-12-15T06:51:44.094Z,45.13
2022-12-15T06:54:12.552Z,35.80
2022-12-15T06:56:40.875Z,36.43
2022-12-15T06:59:12.195Z,35.77
2022-12-15T07:01:41.821Z,40.80
2022-12-15T07:04:11.325Z,40.30
2022-12-15T07:06:41.168Z,49.53
2022-12-15T07:09:12.849Z,42.93
2022-12-15T07:11:41.090Z,39.73
2022-12-15T07:14:11.228Z,46.13
2022-12-15T07:16:41.140Z,38.03
2022-12-15T07:19:12.939Z,39.10
2022-12-15T07:21:42.563Z,40.47
2022-12-15T07:24:12.464Z,42.90
2022-12-15T07:26:40.720Z,42.17
2022-12-15T07:29:11.928Z,38.77
2022-12-15T07:31:40.187Z,43.77
2022-12-15T07:34:08.509Z,45.00
2022-12-15T07:36:36.745Z,38.03
2022-12-15T07:39:06.065Z,48.40
2022-12-15T07:41:35.422Z,47.83
2022-12-15T07:44:03.474Z,40.07
2022-12-15T07:46:33.169Z,38.10
2022-12-15T07:49:01.234Z,41.07
2022-12-15T07:51:29.251Z,44.00
2022-12-15T07:53:57.520Z,42.77
2022-12-15T07:56:25.567Z,37.47
2022-12-15T07:58:54.154Z,37.43
2022-12-15T08:01:22.823Z,39.63
2022-12-15T08:03:53.140Z,38.27
2022-12-15T08:06:21.486Z,44.47
2022-12-15T08:08:51.209Z,39.70
2022-12-15T08:11:21.929Z,44.00
2022-12-15T08:14:10.665Z,42.50
2022-12-15T08:16:39.977Z,40.07
2022-12-15T08:19:15.452Z,40.73
2022-12-15T08:21:45.551Z,41.87
2022-12-15T08:24:15.347Z,37.90
2022-12-15T08:26:50.205Z,37.37
2022-12-15T08:32:07.544Z,39.37
2022-12-15T08:34:37.342Z,35.57
2022-12-15T08:37:05.465Z,33.40
2022-12-15T08:39:33.702Z,32.60
2022-12-15T08:42:01.777Z,37.70
2022-12-15T08:44:30.144Z,33.77
2022-12-15T08:46:59.101Z,37.33
2022-12-15T08:49:27.267Z,36.00
2022-12-15T08:51:56.775Z,37.30
2022-12-15T08:54:24.872Z,34.50
2022-12-15T08:56:53.082Z,36.60
2022-12-15T08:59:24.156Z,36.30
2022-12-15T09:01:52.354Z,40.80
2022-12-15T09:04:20.559Z,42.87
2022-12-15T09:06:50.766Z,42.63
2022-12-15T09:09:21.263Z,44.93
2022-12-15T09:11:49.918Z,40.87
2022-12-15T09:14:22.719Z,36.73
2022-12-15T09:16:53.849Z,32.03
2022-12-15T09:19:22.199Z,36.87
2022-12-15T09:21:50.539Z,38.60
2022-12-15T09:24:29.186Z,37.30
2022-12-15T09:27:03.393Z,35.60
2022-12-15T09:29:31.543Z,40.43
2022-12-15T09:31:59.764Z,37.00
2022-12-15T09:34:27.996Z,35.50
2022-12-15T09:36:56.856Z,36.13
2022-12-15T09:39:26.397Z,40.23
2022-12-15T09:41:56.440Z,40.93
2022-12-15T09:44:26.849Z,40.27
2022-12-15T09:47:06.167Z,41.77
2022-12-15T09:49:53.995Z,45.50
2022-12-15T09:52:26.954Z,36.87
2022-12-15T09:54:57.520Z,38.87
2022-12-15T09:57:34.332Z,40.13
2022-12-15T10:00:10.174Z,38.10
2022-12-15T10:03:05.530Z,42.40
2022-12-15T10:08:35.133Z,36.77
2022-12-15T10:11:07.960Z,42.13
2022-12-15T10:13:50.269Z,39.37
2022-12-15T10:16:24.341Z,37.43
2022-12-15T10:19:01.871Z,45.70
2022-12-15T10:21:31.984Z,41.93
2022-12-15T10:24:14.315Z,39.03
2022-12-15T10:26:45.101Z,44.27
2022-12-15T10:29:24.387Z,46.53
2022-12-15T10:31:55.369Z,45.87
2022-12-15T10:34:28.438Z,41.50
2022-12-15T10:36:58.228Z,42.33
2022-12-15T10:39:39.337Z,41.60
2022-12-15T10:42:21.268Z,41.00
2022-12-15T10:44:51.523Z,41.53
2022-12-15T10:47:23.253Z,40.33
2022-12-15T10:49:51.710Z,41.67
2022-12-15T10:52:28.597Z,38.67
2022-12-15T10:54:58.347Z,41.57
2022-12-15T10:57:30.747Z,40.77
2022-12-15T11:00:27.360Z,43.97
2022-12-15T11:02:55.716Z,36.53
2022-12-15T11:05:24.272Z,42.03
2022-12-15T11:07:54.610Z,41.40
2022-12-15T11:10:25.267Z,41.43
2022-12-15T11:13:02.448Z,37.67
2022-12-15T11:15:43.475Z,37.63
2022-12-15T11:18:20.519Z,42.60
2022-12-15T11:20:54.171Z,49.07
2022-12-15T11:23:29.810Z,44.13
2022-12-15T11:26:06.852Z,35.47
2022-12-15T11:28:43.819Z,39.87
2022-12-15T11:31:22.021Z,41.40
2022-12-15T11:33:51.991Z,39.67
2022-12-15T11:36:29.836Z,49.03
2022-12-15T11:39:03.583Z,38.10
2022-12-15T11:41:39.516Z,36.93
2022-12-15T11:44:25.031Z,41.27
2022-12-15T11:47:00.784Z,35.83
2022-12-15T11:50:09.736Z,40.70
2022-12-15T11:53:01.642Z,38.00
2022-12-15T11:55:41.841Z,36.60
2022-12-15T11:58:42.406Z,33.57
2022-12-15T12:01:26.536Z,35.83
2022-12-15T12:04:04.386Z,29.90
2022-12-15T12:06:39.891Z,37.40
2022-12-15T12:09:23.825Z,40.07
2022-12-15T12:11:57.669Z,34.80
2022-12-15T12:14:39.024Z,30.27
2022-12-15T12:17:12.407Z,34.17
2022-12-15T12:19:45.248Z,33.13
2022-12-15T12:22:24.613Z,33.60
2022-12-15T12:24:59.130Z,39.90
2022-12-15T12:27:38.754Z,36.27
2022-12-15T12:30:14.198Z,38.67
2022-12-15T12:32:51.577Z,35.27
2022-12-15T12:35:30.815Z,33.00
2022-12-15T12:38:04.486Z,34.70
2022-12-15T12:40:55.084Z,33.60
2022-12-15T12:43:33.206Z,31.53
2022-12-15T12:46:06.184Z,34.10
2022-12-15T12:48:39.600Z,33.87
2022-12-15T12:51:14.870Z,32.50
2022-12-15T12:53:43.114Z,44.17
2022-12-15T12:56:32.049Z,32.53
2022-12-15T12:59:00.677Z,34.90
2022-12-15T13:01:32.514Z,32.33
2022-12-15T13:04:10.902Z,39.27
2022-12-15T13:06:59.573Z,33.93
2022-12-15T13:09:40.231Z,32.63
2022-12-15T13:12:53.272Z,33.77
2022-12-15T13:15:38.228Z,35.73
2022-12-15T13:18:16.593Z,33.73
2022-12-15T13:20:48.907Z,34.87
2022-12-15T13:23:37.581Z,36.20
2022-12-15T13:26:19.211Z,39.93
2022-12-15T13:28:52.074Z,33.43
2022-12-15T13:31:35.515Z,33.97
2022-12-15T13:34:22.920Z,34.20
2022-12-15T13:37:00.474Z,37.67
2022-12-15T13:39:55.204Z,36.60
2022-12-15T13:42:45.636Z,37.67
2022-12-15T13:45:44.179Z,40.77
2022-12-15T13:48:34.718Z,37.57
2022-12-15T13:51:27.590Z,40.77
2022-12-15T13:54:01.856Z,37.70
2022-12-15T13:56:46.245Z,40.93
2022-12-15T13:59:21.964Z,39.13
2022-12-15T14:01:51.682Z,41.00
2022-12-15T14:04:21.500Z,39.20
2022-12-15T14:06:51.626Z,45.33
2022-12-15T14:09:26.907Z,36.90
2022-12-15T14:11:55.278Z,39.73
2022-12-15T14:14:26.432Z,40.73
2022-12-15T14:16:58.924Z,40.43
2022-12-15T14:19:32.037Z,40.30
2022-12-15T14:22:03.574Z,47.77
2022-12-15T14:24:39.847Z,45.17
2022-12-15T14:27:08.755Z,43.23
2022-12-15T14:29:36.960Z,45.87
2022-12-15T14:32:05.991Z,42.33
2022-12-15T14:34:36.982Z,44.90
2022-12-15T14:37:08.548Z,39.80
2022-12-15T14:39:43.275Z,45.97
2022-12-15T14:42:17.231Z,42.60
2022-12-15T14:44:49.724Z,47.87
2022-12-15T14:47:24.300Z,40.80
2022-12-15T14:49:53.251Z,49.00
2022-12-15T14:52:29.696Z,39.60
2022-12-15T14:55:00.652Z,46.13
2022-12-15T14:57:38.819Z,47.03
2022-12-15T15:00:26.051Z,45.00
2022-12-15T15:05:50.775Z,43.87
2022-12-15T15:08:27.336Z,36.83
2022-12-15T15:10:59.351Z,40.30
2022-12-15T15:13:39.789Z,46.73
2022-12-15T15:16:15.316Z,49.30
2022-12-15T15:18:44.566Z,47.43
2022-12-15T15:21:22.335Z,39.67
2022-12-15T15:24:00.822Z,45.77
2022-12-15T15:26:31.564Z,46.53
2022-12-15T15:28:59.684Z,43.47
2022-12-15T15:31:36.795Z,46.70
2022-12-15T15:34:08.382Z,44.93
2022-12-15T15:36:38.357Z,47.77
2022-12-15T15:39:13.773Z,48.30
2022-12-15T15:41:43.455Z,52.30
2022-12-15T15:44:14.558Z,50.13
2022-12-15T15:46:47.684Z,48.80
2022-12-15T15:49:18.968Z,54.10
2022-12-15T15:51:47.190Z,75.07
2022-12-15T15:54:17.734Z,59.27
2022-12-15T15:56:47.501Z,55.60
2022-12-15T15:59:16.834Z,55.83
2022-12-15T16:01:46.511Z,59.10
2022-12-15T16:04:14.737Z,50.83
2022-12-15T16:06:47.279Z,46.60
2022-12-15T16:09:16.971Z,42.50
2022-12-15T16:11:47.605Z,48.20
2022-12-15T16:14:17.192Z,42.57
2022-12-15T16:16:45.800Z,45.13
2022-12-15T16:19:14.189Z,43.83
2022-12-15T16:21:43.805Z,45.73
2022-12-15T16:24:17.328Z,54.80
2022-12-15T16:26:48.882Z,49.27
2022-12-15T16:29:19.088Z,44.63
2022-12-15T16:31:47.483Z,54.90
2022-12-15T16:34:17.702Z,49.27
2022-12-15T16:36:46.414Z,48.10
2022-12-15T16:39:26.630Z,41.10
2022-12-15T16:41:57.485Z,46.57
2022-12-15T16:44:53.810Z,51.27
2022-12-15T16:47:22.471Z,46.67
2022-12-15T16:49:51.264Z,46.63
2022-12-15T16:52:22.187Z,47.50
2022-12-15T16:54:51.081Z,46.67
2022-12-15T16:57:20.662Z,45.53
2022-12-15T16:59:49.919Z,42.93
2022-12-15T17:02:29.073Z,46.50
2022-12-15T17:04:58.045Z,49.73
2022-12-15T17:07:28.176Z,46.00
2022-12-15T17:09:57.974Z,44.33
2022-12-15T17:12:27.465Z,50.03
2022-12-15T17:14:55.453Z,48.53
2022-12-15T17:17:23.634Z,42.13
2022-12-15T17:20:27.245Z,55.90
2022-12-15T17:22:40.314Z,46.70
2022-12-15T17:25:17.055Z,42.13
2022-12-15T17:27:46.965Z,45.70
2022-12-15T17:30:16.729Z,44.80
2022-12-15T17:32:45.782Z,49.43
2022-12-15T17:35:14.215Z,49.60
2022-12-15T17:37:42.636Z,55.87
2022-12-15T17:40:19.305Z,52.80
2022-12-15T17:42:50.005Z,48.10
2022-12-15T17:45:22.017Z,49.47
2022-12-15T17:47:52.081Z,45.23
2022-12-15T17:50:20.726Z,54.57
2022-12-15T17:52:50.386Z,59.80
2022-12-15T17:55:22.966Z,47.63
2022-12-15T17:57:53.654Z,43.40
2022-12-15T18:00:25.770Z,49.20
2022-12-15T18:02:54.699Z,48.23
2022-12-15T18:05:24.775Z,55.43
2022-12-15T18:07:56.114Z,46.13
2022-12-15T18:10:29.058Z,51.80
2022-12-15T18:12:59.554Z,52.50
2022-12-15T18:15:30.893Z,60.20
2022-12-15T18:18:00.746Z,63.97
2022-12-15T18:20:28.884Z,52.17
2022-12-15T18:22:57.006Z,54.20
2022-12-15T18:25:27.550Z,52.73
2022-12-15T18:27:56.210Z,53.07
2022-12-15T18:30:27.385Z,61.70
2022-12-15T18:32:58.023Z,48.60
2022-12-15T18:35:31.455Z,59.37
2022-12-15T18:37:59.467Z,51.17
2022-12-15T18:40:30.334Z,54.00
2022-12-15T18:42:58.325Z,59.70
2022-12-15T18:45:28.544Z,63.43
2022-12-15T18:47:56.691Z,66.87
2022-12-15T18:50:26.418Z,60.40
2022-12-15T18:53:04.134Z,59.37
2022-12-15T18:55:33.026Z,56.50
2022-12-15T18:58:01.765Z,55.20
2022-12-15T19:00:32.396Z,56.57
2022-12-15T19:03:01.208Z,65.37
2022-12-15T19:05:29.969Z,56.80
2022-12-15T19:08:04.393Z,56.50
2022-12-15T19:10:34.750Z,58.93
2022-12-15T19:13:02.745Z,67.97
2022-12-15T19:15:35.155Z,55.40
2022-12-15T19:18:20.718Z,52.33
2022-12-15T19:21:06.101Z,48.10
2022-12-15T19:23:35.758Z,52.87
2022-12-15T19:26:04.102Z,54.63
2022-12-15T19:28:33.114Z,51.47
2022-12-15T19:31:02.478Z,53.70
2022-12-15T19:33:30.819Z,55.63
2022-12-15T19:35:59.434Z,57.50
2022-12-15T19:38:29.606Z,52.17
2022-12-15T19:41:00.084Z,55.23
2022-12-15T19:43:28.704Z,55.20
2022-12-15T19:45:57.781Z,49.87
2022-12-15T19:48:27.287Z,54.10
2022-12-15T19:50:55.475Z,58.80
2022-12-15T19:53:29.769Z,54.43
2022-12-15T19:56:01.475Z,44.23
2022-12-15T19:58:31.623Z,41.43
2022-12-15T20:01:01.962Z,42.80
2022-12-15T20:03:32.083Z,49.70
2022-12-15T20:06:02.625Z,45.73
2022-12-15T20:08:35.199Z,40.03
2022-12-15T20:11:03.581Z,52.40
2022-12-15T20:13:32.151Z,40.77
2022-12-15T20:16:00.433Z,49.17
2022-12-15T20:18:28.419Z,47.13
2022-12-15T20:20:59.186Z,49.03
2022-12-15T20:23:29.256Z,35.43
2022-12-15T20:25:57.964Z,41.93
2022-12-15T20:28:28.417Z,41.30
2022-12-15T20:30:58.330Z,45.70
2022-12-15T20:33:26.701Z,37.70
2022-12-15T20:35:55.211Z,52.00
2022-12-15T20:38:30.133Z,40.67
2022-12-15T20:40:58.729Z,37.60
2022-12-15T20:43:27.861Z,32.17
2022-12-15T20:46:03.058Z,31.00
2022-12-15T20:48:31.528Z,19.20
2022-12-15T20:51:01.902Z,20.90
2022-12-15T20:53:34.331Z,19.63
2022-12-15T20:56:02.694Z,22.33
2022-12-15T20:58:33.369Z,18.27
2022-12-15T21:01:01.867Z,17.17
2022-12-15T21:03:34.099Z,22.43
2022-12-15T21:06:02.427Z,25.10
2022-12-15T21:08:33.388Z,17.67
2022-12-15T21:11:03.606Z,18.60
2022-12-15T21:13:35.391Z,19.97
2022-12-15T21:16:04.045Z,22.20
2022-12-15T21:21:25.096Z,18.03
2022-12-15T21:23:54.675Z,21.07
2022-12-15T21:26:24.244Z,19.13
2022-12-15T21:28:55.519Z,13.33
2022-12-15T21:31:24.747Z,21.53
2022-12-15T21:33:53.008Z,21.60
2022-12-15T21:36:23.227Z,18.63
2022-12-15T21:38:53.008Z,27.40
2022-12-15T21:41:24.699Z,27.57
2022-12-15T21:43:52.719Z,31.10
2022-12-15T21:46:28.605Z,29.90
2022-12-15T21:49:14.529Z,29.43
2022-12-15T21:51:44.791Z,34.70
2022-12-15T21:54:18.267Z,29.70
2022-12-15T21:56:48.504Z,30.23
2022-12-15T21:59:18.110Z,27.87
2022-12-15T22:01:46.524Z,26.77
2022-12-15T22:04:19.063Z,32.80
2022-12-15T22:06:50.595Z,27.10
2022-12-15T22:09:19.394Z,26.37
2022-12-15T22:11:52.901Z,30.10
2022-12-15T22:14:26.026Z,27.17
2022-12-15T22:16:54.438Z,29.87
2022-12-15T22:19:22.981Z,31.90
2022-12-15T22:21:50.943Z,30.33
2022-12-15T22:24:20.916Z,34.47
2022-12-15T22:26:50.217Z,27.90
2022-12-15T22:29:21.510Z,24.60
2022-12-15T22:31:50.675Z,32.83
2022-12-15T22:34:22.054Z,30.03
2022-12-15T22:36:50.986Z,32.03
2022-12-15T22:39:20.524Z,29.60
2022-12-15T22:41:51.318Z,34.90
2022-12-15T22:44:23.607Z,27.57
2022-12-15T22:46:52.921Z,31.00
2022-12-15T22:49:25.554Z,29.47
2022-12-15T22:51:53.474Z,27.67
2022-12-15T22:54:25.301Z,24.50
2022-12-15T22:56:58.402Z,21.33
2022-12-15T22:59:30.627Z,26.33
2022-12-15T23:01:58.807Z,29.90
2022-12-15T23:04:26.820Z,23.60
2022-12-15T23:06:54.929Z,27.03
2022-12-15T23:09:22.929Z,24.17
2022-12-15T23:11:49.861Z,25.73
2022-12-15T23:14:40.374Z,25.83
2022-12-15T23:17:07.566Z,31.13
2022-12-15T23:19:36.351Z,29.73
2022-12-15T23:22:04.320Z,29.13
2022-12-15T23:24:32.602Z,28.27
2022-12-15T23:27:00.488Z,29.73
2022-12-15T23:29:29.822Z,31.23
2022-12-15T23:31:57.904Z,25.70
2022-12-15T23:34:25.857Z,22.83
2022-12-15T23:36:53.751Z,25.20
2022-12-15T23:39:21.715Z,25.83
2022-12-15T23:41:49.612Z,26.27
2022-12-15T23:44:18.458Z,23.73
2022-12-15T23:46:47.758Z,21.20
2022-12-15T23:49:15.702Z,23.87
2022-12-15T23:51:43.578Z,24.97
2022-12-15T23:54:11.528Z,26.00
2022-12-15T23:56:40.630Z,23.30
2022-12-15T23:59:08.593Z,21.30
